sensor_id;sensor_type;location;lat;lon;timestamp;pressure;altitude;pressure_sealevel;temperature;humidity
68859;BME280;55864;49.238;8.092;2023-04-08T00:01:04;99767.09;;;9.43;77.41
68859;BME280;55864;49.238;8.092;2023-04-08T00:03:05;99773.31;;;9.42;77.96
68859;BME280;55864;49.238;8.092;2023-04-08T00:05:06;99768.78;;;9.44;77.42
68859;BME280;55864;49.238;8.092;2023-04-08T00:07:07;99769.72;;;9.43;77.19
68859;BME280;55864;49.238;8.092;2023-04-08T00:09:07;99771.41;;;9.44;78.02
68859;BME280;55864;49.238;8.092;2023-04-08T00:11:08;99773.19;;;9.43;77.15
68859;BME280;55864;49.238;8.092;2023-04-08T00:13:08;99772.22;;;9.44;77.21
68859;BME280;55864;49.238;8.092;2023-04-08T00:15:10;99771.41;;;9.44;77.08
68859;BME280;55864;49.238;8.092;2023-04-08T00:17:11;99770.28;;;9.46;77.43
68859;BME280;55864;49.238;8.092;2023-04-08T00:19:11;99770.19;;;9.48;77.44
68859;BME280;55864;49.238;8.092;2023-04-08T00:21:12;99770.19;;;9.48;77.15
68859;BME280;55864;49.238;8.092;2023-04-08T00:23:12;99774.72;;;9.46;76.46
68859;BME280;55864;49.238;8.092;2023-04-08T00:25:13;99769.47;;;9.46;77.42
68859;BME280;55864;49.238;8.092;2023-04-08T00:27:13;99768.50;;;9.47;77.70
68859;BME280;55864;49.238;8.092;2023-04-08T00:29:14;99775.66;;;9.45;76.95
68859;BME280;55864;49.238;8.092;2023-04-08T00:31:16;99770.28;;;9.46;77.20
68859;BME280;55864;49.238;8.092;2023-04-08T00:33:17;99770.19;;;9.48;77.52
68859;BME280;55864;49.238;8.092;2023-04-08T00:35:17;99771.13;;;9.47;77.46
68859;BME280;55864;49.238;8.092;2023-04-08T00:37:18;99770.88;;;9.50;77.29
68859;BME280;55864;49.238;8.092;2023-04-08T00:39:18;99773.38;;;9.52;77.23
68859;BME280;55864;49.238;8.092;2023-04-08T00:41:19;99775.88;;;9.53;77.71
68859;BME280;55864;49.238;8.092;2023-04-08T00:43:19;99771.47;;;9.54;77.43
68859;BME280;55864;49.238;8.092;2023-04-08T00:45:20;99771.47;;;9.54;77.13
68859;BME280;55864;49.238;8.092;2023-04-08T00:47:22;99774.31;;;9.50;77.74
68859;BME280;55864;49.238;8.092;2023-04-08T00:49:23;99771.84;;;9.49;77.14
68859;BME280;55864;49.238;8.092;2023-04-08T00:51:23;99775.44;;;9.48;77.55
68859;BME280;55864;49.238;8.092;2023-04-08T00:53:24;99776.50;;;9.45;77.09
68859;BME280;55864;49.238;8.092;2023-04-08T00:55:24;99776.38;;;9.47;77.98
68859;BME280;55864;49.238;8.092;2023-04-08T00:57:26;99782.31;;;9.28;78.05
68859;BME280;55864;49.238;8.092;2023-04-08T00:59:28;99781.78;;;9.14;78.52
68859;BME280;55864;49.238;8.092;2023-04-08T01:01:37;99781.63;;;8.95;78.27
68859;BME280;55864;49.238;8.092;2023-04-08T01:03:50;99779.97;;;8.83;78.87
68859;BME280;55864;49.238;8.092;2023-04-08T01:05:59;99781.91;;;8.70;77.54
68859;BME280;55864;49.238;8.092;2023-04-08T01:08:04;99789.09;;;8.57;77.51
68859;BME280;55864;49.238;8.092;2023-04-08T01:10:10;99785.28;;;8.49;77.49
68859;BME280;55864;49.238;8.092;2023-04-08T01:12:15;99788.38;;;8.43;79.00
68859;BME280;55864;49.238;8.092;2023-04-08T01:14:19;99788.88;;;8.37;78.52
68859;BME280;55864;49.238;8.092;2023-04-08T01:16:20;99779.44;;;8.35;79.76
68859;BME280;55864;49.238;8.092;2023-04-08T01:18:22;99784.81;;;8.33;78.81
68859;BME280;55864;49.238;8.092;2023-04-08T01:20:25;99789.47;;;8.30;79.94
68859;BME280;55864;49.238;8.092;2023-04-08T01:22:33;99785.28;;;8.27;80.62
68859;BME280;55864;49.238;8.092;2023-04-08T01:24:39;99792.06;;;8.30;80.85
68859;BME280;55864;49.238;8.092;2023-04-08T01:26:44;99785.41;;;8.26;81.41
68859;BME280;55864;49.238;8.092;2023-04-08T01:28:44;99778.41;;;8.26;80.65
68859;BME280;55864;49.238;8.092;2023-04-08T01:30:46;99783.00;;;8.23;81.65
68859;BME280;55864;49.238;8.092;2023-04-08T01:32:48;99781.34;;;8.22;81.15
68859;BME280;55864;49.238;8.092;2023-04-08T01:34:51;99793.00;;;8.18;81.78
68859;BME280;55864;49.238;8.092;2023-04-08T01:36:52;99785.50;;;8.13;82.18
68859;BME280;55864;49.238;8.092;2023-04-08T01:38:55;99783.50;;;8.17;82.41
68859;BME280;55864;49.238;8.092;2023-04-08T01:40:56;99781.22;;;8.12;82.13
68859;BME280;55864;49.238;8.092;2023-04-08T01:42:59;99781.59;;;8.08;82.15
68859;BME280;55864;49.238;8.092;2023-04-08T01:45:00;99779.06;;;8.06;82.64
68859;BME280;55864;49.238;8.092;2023-04-08T01:47:02;99776.94;;;8.00;82.49
68859;BME280;55864;49.238;8.092;2023-04-08T01:49:04;99771.34;;;8.05;82.98
68859;BME280;55864;49.238;8.092;2023-04-08T01:51:08;99779.06;;;8.06;81.90
68859;BME280;55864;49.238;8.092;2023-04-08T01:53:10;99773.16;;;8.04;82.62
68859;BME280;55864;49.238;8.092;2023-04-08T01:55:11;99774.09;;;8.03;82.33
68859;BME280;55864;49.238;8.092;2023-04-08T01:57:16;99769.69;;;8.04;83.32
68859;BME280;55864;49.238;8.092;2023-04-08T01:59:21;99773.50;;;8.00;82.70
68859;BME280;55864;49.238;8.092;2023-04-08T02:01:26;99776.31;;;7.97;82.79
68859;BME280;55864;49.238;8.092;2023-04-08T02:03:29;99775.66;;;7.95;83.26
68859;BME280;55864;49.238;8.092;2023-04-08T02:05:30;99772.31;;;7.93;82.80
68859;BME280;55864;49.238;8.092;2023-04-08T02:07:31;99773.13;;;7.93;83.11
68859;BME280;55864;49.238;8.092;2023-04-08T02:09:31;99778.34;;;7.93;82.73
68859;BME280;55864;49.238;8.092;2023-04-08T02:11:32;99773.13;;;7.93;83.05
68859;BME280;55864;49.238;8.092;2023-04-08T02:13:33;99775.03;;;7.91;83.44
68859;BME280;55864;49.238;8.092;2023-04-08T02:15:37;99777.28;;;7.96;82.99
68859;BME280;55864;49.238;8.092;2023-04-08T02:17:44;99773.25;;;7.92;83.19
68859;BME280;55864;49.238;8.092;2023-04-08T02:19:48;99779.44;;;7.91;83.17
68859;BME280;55864;49.238;8.092;2023-04-08T02:21:57;99776.91;;;7.89;83.20
68859;BME280;55864;49.238;8.092;2023-04-08T02:24:03;99781.47;;;7.87;82.94
68859;BME280;55864;49.238;8.092;2023-04-08T02:26:06;99783.22;;;7.87;83.66
68859;BME280;55864;49.238;8.092;2023-04-08T02:28:09;99782.63;;;7.83;83.68
68859;BME280;55864;49.238;8.092;2023-04-08T02:30:11;99778.22;;;7.84;83.32
68859;BME280;55864;49.238;8.092;2023-04-08T02:32:15;99780.75;;;7.85;83.75
68859;BME280;55864;49.238;8.092;2023-04-08T02:34:15;99775.50;;;7.85;83.62
68859;BME280;55864;49.238;8.092;2023-04-08T02:36:17;99782.63;;;7.83;83.80
68859;BME280;55864;49.238;8.092;2023-04-08T02:38:18;99783.34;;;7.85;83.33
68859;BME280;55864;49.238;8.092;2023-04-08T02:40:26;99784.28;;;7.84;83.51
68859;BME280;55864;49.238;8.092;2023-04-08T02:42:27;99785.25;;;7.83;83.92
68859;BME280;55864;49.238;8.092;2023-04-08T02:44:27;99782.25;;;7.77;83.90
68859;BME280;55864;49.238;8.092;2023-04-08T02:46:28;99786.56;;;7.78;84.08
68859;BME280;55864;49.238;8.092;2023-04-08T02:48:30;99780.59;;;7.76;83.93
68859;BME280;55864;49.238;8.092;2023-04-08T02:50:31;99782.25;;;7.77;84.18
68859;BME280;55864;49.238;8.092;2023-04-08T02:52:31;99789.03;;;7.79;83.71
68859;BME280;55864;49.238;8.092;2023-04-08T02:54:32;99789.16;;;7.78;83.71
68859;BME280;55864;49.238;8.092;2023-04-08T02:56:32;99783.94;;;7.78;83.96
68859;BME280;55864;49.238;8.092;2023-04-08T02:58:33;99788.34;;;7.77;84.32
68859;BME280;55864;49.238;8.092;2023-04-08T03:00:34;99788.34;;;7.77;84.48
68859;BME280;55864;49.238;8.092;2023-04-08T03:02:34;99786.88;;;7.73;83.76
68859;BME280;55864;49.238;8.092;2023-04-08T03:04:37;99789.50;;;7.73;83.73
68859;BME280;55864;49.238;8.092;2023-04-08T03:06:37;99786.88;;;7.73;83.85
68859;BME280;55864;49.238;8.092;2023-04-08T03:08:38;99790.94;;;7.77;83.78
68859;BME280;55864;49.238;8.092;2023-04-08T03:10:38;99788.81;;;7.93;84.22
68859;BME280;55864;49.238;8.092;2023-04-08T03:12:39;99788.47;;;8.09;83.36
68859;BME280;55864;49.238;8.092;2023-04-08T03:14:39;99789.19;;;8.22;83.64
68859;BME280;55864;49.238;8.092;2023-04-08T03:16:40;99786.84;;;8.30;83.21
68859;BME280;55864;49.238;8.092;2023-04-08T03:18:40;99782.66;;;8.38;83.55
68859;BME280;55864;49.238;8.092;2023-04-08T03:20:42;99786.47;;;8.45;83.07
68859;BME280;55864;49.238;8.092;2023-04-08T03:22:43;99786.00;;;8.51;82.94
68859;BME280;55864;49.238;8.092;2023-04-08T03:24:43;99790.72;;;8.57;82.35
68859;BME280;55864;49.238;8.092;2023-04-08T03:26:44;99786.69;;;8.65;82.52
68859;BME280;55864;49.238;8.092;2023-04-08T03:28:44;99786.44;;;8.68;81.75
68859;BME280;55864;49.238;8.092;2023-04-08T03:30:45;99786.09;;;8.72;81.47
68859;BME280;55864;49.238;8.092;2023-04-08T03:32:46;99790.94;;;8.77;81.67
68859;BME280;55864;49.238;8.092;2023-04-08T03:34:46;99785.47;;;8.80;81.54
68859;BME280;55864;49.238;8.092;2023-04-08T03:36:48;99785.34;;;8.81;81.65
68859;BME280;55864;49.238;8.092;2023-04-08T03:38:49;99788.66;;;8.83;80.95
68859;BME280;55864;49.238;8.092;2023-04-08T03:40:49;99794.63;;;8.85;80.78
68859;BME280;55864;49.238;8.092;2023-04-08T03:42:50;99790.91;;;8.88;80.38
68859;BME280;55864;49.238;8.092;2023-04-08T03:44:50;99790.66;;;8.91;81.02
68859;BME280;55864;49.238;8.092;2023-04-08T03:46:51;99790.53;;;8.92;80.25
68859;BME280;55864;49.238;8.092;2023-04-08T03:48:52;99794.00;;;8.93;80.95
68859;BME280;55864;49.238;8.092;2023-04-08T03:50:52;99795.53;;;8.95;80.44
68859;BME280;55864;49.238;8.092;2023-04-08T03:52:54;99798.97;;;8.96;80.05
68859;BME280;55864;49.238;8.092;2023-04-08T03:54:55;99796.38;;;8.96;80.09
68859;BME280;55864;49.238;8.092;2023-04-08T03:56:55;99796.94;;;8.99;79.98
68859;BME280;55864;49.238;8.092;2023-04-08T03:58:56;99797.78;;;9.00;80.80
68859;BME280;55864;49.238;8.092;2023-04-08T04:00:56;99794.22;;;9.01;80.00
68859;BME280;55864;49.238;8.092;2023-04-08T04:02:57;99789.78;;;9.01;80.14
68859;BME280;55864;49.238;8.092;2023-04-08T04:04:57;99791.34;;;9.04;80.42
68859;BME280;55864;49.238;8.092;2023-04-08T04:06:58;99790.38;;;9.05;80.45
68859;BME280;55864;49.238;8.092;2023-04-08T04:09:00;99795.63;;;9.05;80.33
68859;BME280;55864;49.238;8.092;2023-04-08T04:11:00;99793.69;;;9.07;80.06
68859;BME280;55864;49.238;8.092;2023-04-08T04:13:01;99793.59;;;9.08;79.95
68859;BME280;55864;49.238;8.092;2023-04-08T04:15:02;99794.41;;;9.09;80.12
68859;BME280;55864;49.238;8.092;2023-04-08T04:17:02;99795.25;;;9.09;79.62
68859;BME280;55864;49.238;8.092;2023-04-08T04:19:03;99791.66;;;9.10;79.73
68859;BME280;55864;49.238;8.092;2023-04-08T04:21:04;99794.19;;;9.12;79.52
68859;BME280;55864;49.238;8.092;2023-04-08T04:23:05;99794.28;;;9.10;79.64
68859;BME280;55864;49.238;8.092;2023-04-08T04:25:08;99797.03;;;9.09;80.33
68859;BME280;55864;49.238;8.092;2023-04-08T04:27:08;99796.09;;;9.10;80.16
68859;BME280;55864;49.238;8.092;2023-04-08T04:29:09;99801.19;;;9.11;80.21
68859;BME280;55864;49.238;8.092;2023-04-08T04:31:17;99807.28;;;9.12;80.16
68859;BME280;55864;49.238;8.092;2023-04-08T04:33:17;99803.81;;;9.11;79.42
68859;BME280;55864;49.238;8.092;2023-04-08T04:35:18;99803.97;;;9.10;79.60
68859;BME280;55864;49.238;8.092;2023-04-08T04:37:19;99809.06;;;9.11;79.88
68859;BME280;55864;49.238;8.092;2023-04-08T04:39:19;99803.69;;;9.13;79.26
68859;BME280;55864;49.238;8.092;2023-04-08T04:41:21;99805.38;;;9.14;78.95
68859;BME280;55864;49.238;8.092;2023-04-08T04:43:22;99808.72;;;9.16;78.99
68859;BME280;55864;49.238;8.092;2023-04-08T04:45:22;99806.75;;;9.18;79.69
68859;BME280;55864;49.238;8.092;2023-04-08T04:47:23;99811.19;;;9.17;79.56
68859;BME280;55864;49.238;8.092;2023-04-08T04:49:23;99812.25;;;9.15;79.38
68859;BME280;55864;49.238;8.092;2023-04-08T04:51:24;99811.41;;;9.14;79.78
68859;BME280;55864;49.238;8.092;2023-04-08T04:53:24;99811.31;;;9.16;79.75
68859;BME280;55864;49.238;8.092;2023-04-08T04:55:25;99815.59;;;9.17;79.73
68859;BME280;55864;49.238;8.092;2023-04-08T04:57:27;99817.25;;;9.18;79.57
68859;BME280;55864;49.238;8.092;2023-04-08T04:59:27;99817.25;;;9.18;79.18
68859;BME280;55864;49.238;8.092;2023-04-08T05:01:28;99822.47;;;9.18;79.01
68859;BME280;55864;49.238;8.092;2023-04-08T05:03:31;99817.25;;;9.18;79.15
68859;BME280;55864;49.238;8.092;2023-04-08T05:05:32;99827.06;;;9.16;79.34
68859;BME280;55864;49.238;8.092;2023-04-08T05:07:34;99825.38;;;9.15;79.71
68859;BME280;55864;49.238;8.092;2023-04-08T05:09:35;99823.59;;;9.15;79.18
68859;BME280;55864;49.238;8.092;2023-04-08T05:11:35;99826.06;;;9.17;79.15
68859;BME280;55864;49.238;8.092;2023-04-08T05:13:37;99828.44;;;9.20;78.93
68859;BME280;55864;49.238;8.092;2023-04-08T05:15:38;99832.75;;;9.21;78.97
68859;BME280;55864;49.238;8.092;2023-04-08T05:17:39;99842.25;;;9.22;79.63
68859;BME280;55864;49.238;8.092;2023-04-08T05:19:39;99842.38;;;9.20;78.96
68859;BME280;55864;49.238;8.092;2023-04-08T05:21:40;99838.81;;;9.21;79.38
68859;BME280;55864;49.238;8.092;2023-04-08T05:23:40;99839.75;;;9.20;79.35
68859;BME280;55864;49.238;8.092;2023-04-08T05:25:41;99842.16;;;9.23;79.40
68859;BME280;55864;49.238;8.092;2023-04-08T05:27:42;99842.97;;;9.24;79.29
68859;BME280;55864;49.238;8.092;2023-04-08T05:29:43;99842.16;;;9.23;79.01
68859;BME280;55864;49.238;8.092;2023-04-08T05:31:44;99850.03;;;9.23;80.02
68859;BME280;55864;49.238;8.092;2023-04-08T05:33:45;99840.34;;;9.24;78.70
68859;BME280;55864;49.238;8.092;2023-04-08T05:35:46;99842.16;;;9.23;79.15
68859;BME280;55864;49.238;8.092;2023-04-08T05:37:46;99839.53;;;9.23;79.18
68859;BME280;55864;49.238;8.092;2023-04-08T05:39:47;99843.66;;;9.26;79.03
68859;BME280;55864;49.238;8.092;2023-04-08T05:41:47;99850.59;;;9.27;79.52
68859;BME280;55864;49.238;8.092;2023-04-08T05:43:48;99846.56;;;9.23;79.29
68859;BME280;55864;49.238;8.092;2023-04-08T05:45:50;99852.50;;;9.25;78.68
68859;BME280;55864;49.238;8.092;2023-04-08T05:47:50;99854.88;;;9.28;78.62
68859;BME280;55864;49.238;8.092;2023-04-08T05:49:51;99849.63;;;9.28;79.18
68859;BME280;55864;49.238;8.092;2023-04-08T05:51:51;99860.94;;;9.28;78.49
68859;BME280;55864;49.238;8.092;2023-04-08T05:53:52;99862.59;;;9.29;79.18
68859;BME280;55864;49.238;8.092;2023-04-08T05:55:52;99864.50;;;9.27;78.04
68859;BME280;55864;49.238;8.092;2023-04-08T05:57:53;99860.94;;;9.28;78.51
68859;BME280;55864;49.238;8.092;2023-04-08T05:59:54;99866.91;;;9.30;78.68
68859;BME280;55864;49.238;8.092;2023-04-08T06:01:56;99868.69;;;9.30;78.52
68859;BME280;55864;49.238;8.092;2023-04-08T06:03:56;99867.97;;;9.28;78.52
68859;BME280;55864;49.238;8.092;2023-04-08T06:05:57;99869.53;;;9.30;78.54
68859;BME280;55864;49.238;8.092;2023-04-08T06:07:58;99876.19;;;9.34;79.14
68859;BME280;55864;49.238;8.092;2023-04-08T06:09:58;99874.50;;;9.33;78.54
68859;BME280;55864;49.238;8.092;2023-04-08T06:11:59;99883.34;;;9.32;78.84
68859;BME280;55864;49.238;8.092;2023-04-08T06:13:59;99879.44;;;9.27;79.35
68859;BME280;55864;49.238;8.092;2023-04-08T06:16:09;99881.38;;;9.03;78.92
68859;BME280;55864;49.238;8.092;2023-04-08T06:18:11;99878.44;;;8.85;79.25
68859;BME280;55864;49.238;8.092;2023-04-08T06:20:12;99883.56;;;8.76;79.94
68859;BME280;55864;49.238;8.092;2023-04-08T06:22:12;99875.22;;;8.71;79.57
68859;BME280;55864;49.238;8.092;2023-04-08T06:24:13;99882.13;;;8.72;79.31
68859;BME280;55864;49.238;8.092;2023-04-08T06:26:13;99875.94;;;8.62;79.41
68859;BME280;55864;49.238;8.092;2023-04-08T06:28:14;99882.47;;;8.78;79.57
68859;BME280;55864;49.238;8.092;2023-04-08T06:30:14;99881.53;;;8.90;81.31
68859;BME280;55864;49.238;8.092;2023-04-08T06:32:15;99885.22;;;8.99;81.29
68859;BME280;55864;49.238;8.092;2023-04-08T06:34:17;99888.03;;;9.07;79.52
68859;BME280;55864;49.238;8.092;2023-04-08T06:36:17;99882.94;;;9.05;79.38
68859;BME280;55864;49.238;8.092;2023-04-08T06:38:18;99884.38;;;8.98;78.85
68859;BME280;55864;49.238;8.092;2023-04-08T06:40:19;99892.38;;;8.97;79.57
68859;BME280;55864;49.238;8.092;2023-04-08T06:42:19;99897.72;;;8.84;79.08
68859;BME280;55864;49.238;8.092;2023-04-08T06:44:33;99887.84;;;8.77;79.42
68859;BME280;55864;49.238;8.092;2023-04-08T06:46:34;99890.59;;;8.75;79.61
68859;BME280;55864;49.238;8.092;2023-04-08T06:48:34;99887.38;;;8.72;79.03
68859;BME280;55864;49.238;8.092;2023-04-08T06:50:36;99890.25;;;8.69;79.76
68859;BME280;55864;49.238;8.092;2023-04-08T06:52:37;99894.53;;;8.70;80.01
68859;BME280;55864;49.238;8.092;2023-04-08T06:54:37;99890.13;;;8.70;80.71
68859;BME280;55864;49.238;8.092;2023-04-08T06:56:38;99891.56;;;8.74;80.43
68859;BME280;55864;49.238;8.092;2023-04-08T06:58:38;99891.44;;;8.65;80.48
68859;BME280;55864;49.238;8.092;2023-04-08T07:00:39;99904.28;;;8.57;80.00
68859;BME280;55864;49.238;8.092;2023-04-08T07:02:41;99905.00;;;8.59;79.94
68859;BME280;55864;49.238;8.092;2023-04-08T07:04:41;99906.44;;;8.51;80.09
68859;BME280;55864;49.238;8.092;2023-04-08T07:06:43;99908.56;;;8.57;80.74
68859;BME280;55864;49.238;8.092;2023-04-08T07:08:44;99908.81;;;8.54;80.37
68859;BME280;55864;49.238;8.092;2023-04-08T07:10:44;99913.06;;;8.55;80.96
68859;BME280;55864;49.238;8.092;2023-04-08T07:12:45;99910.81;;;8.51;80.70
68859;BME280;55864;49.238;8.092;2023-04-08T07:14:46;99920.13;;;8.55;80.83
68859;BME280;55864;49.238;8.092;2023-04-08T07:16:46;99924.16;;;8.59;81.61
68859;BME280;55864;49.238;8.092;2023-04-08T07:18:47;99905.47;;;8.64;80.85
68859;BME280;55864;49.238;8.092;2023-04-08T07:20:49;99920.25;;;8.65;81.45
68859;BME280;55864;49.238;8.092;2023-04-08T07:22:51;99914.88;;;8.66;81.46
68859;BME280;55864;49.238;8.092;2023-04-08T07:24:52;99916.91;;;8.74;81.57
68859;BME280;55864;49.238;8.092;2023-04-08T07:26:53;99912.97;;;8.79;81.01
68859;BME280;55864;49.238;8.092;2023-04-08T07:28:53;99930.00;;;8.74;81.70
68859;BME280;55864;49.238;8.092;2023-04-08T07:30:54;99921.53;;;8.81;81.79
68859;BME280;55864;49.238;8.092;2023-04-08T07:32:54;99926.31;;;8.87;81.70
68859;BME280;55864;49.238;8.092;2023-04-08T07:34:55;99920.69;;;8.92;81.63
68859;BME280;55864;49.238;8.092;2023-04-08T07:36:55;99929.97;;;8.96;81.47
68859;BME280;55864;49.238;8.092;2023-04-08T07:38:57;99930.22;;;9.04;79.70
68859;BME280;55864;49.238;8.092;2023-04-08T07:40:58;99932.25;;;9.00;80.77
68859;BME280;55864;49.238;8.092;2023-04-08T07:42:59;99934.63;;;9.03;80.55
68859;BME280;55864;49.238;8.092;2023-04-08T07:44:59;99937.09;;;9.05;81.62
68859;BME280;55864;49.238;8.092;2023-04-08T07:47:00;99936.03;;;9.07;81.59
68859;BME280;55864;49.238;8.092;2023-04-08T07:49:00;99934.28;;;9.08;81.62
68859;BME280;55864;49.238;8.092;2023-04-08T07:51:04;99938.91;;;9.04;81.35
68859;BME280;55864;49.238;8.092;2023-04-08T07:53:05;99941.88;;;9.11;81.75
68859;BME280;55864;49.238;8.092;2023-04-08T07:55:08;99946.16;;;9.23;80.55
68859;BME280;55864;49.238;8.092;2023-04-08T07:57:09;99938.63;;;9.29;80.74
68859;BME280;55864;49.238;8.092;2023-04-08T07:59:09;99946.84;;;9.36;81.16
68859;BME280;55864;49.238;8.092;2023-04-08T08:01:17;99945.66;;;9.40;80.42
68859;BME280;55864;49.238;8.092;2023-04-08T08:03:17;99947.06;;;9.44;80.66
68859;BME280;55864;49.238;8.092;2023-04-08T08:05:18;99947.53;;;9.49;81.02
68859;BME280;55864;49.238;8.092;2023-04-08T08:07:19;99954.31;;;9.52;80.20
68859;BME280;55864;49.238;8.092;2023-04-08T08:09:19;99944.88;;;9.60;80.50
68859;BME280;55864;49.238;8.092;2023-04-08T08:11:21;99951.53;;;9.64;79.82
68859;BME280;55864;49.238;8.092;2023-04-08T08:13:22;99957.50;;;9.66;79.56
68859;BME280;55864;49.238;8.092;2023-04-08T08:15:23;99956.78;;;9.64;79.86
68859;BME280;55864;49.238;8.092;2023-04-08T08:17:23;99959.03;;;9.69;79.59
68859;BME280;55864;49.238;8.092;2023-04-08T08:19:24;99954.88;;;9.66;79.23
68859;BME280;55864;49.238;8.092;2023-04-08T08:21:25;99961.75;;;9.67;78.81
68859;BME280;55864;49.238;8.092;2023-04-08T08:23:25;99957.34;;;9.68;78.16
68859;BME280;55864;49.238;8.092;2023-04-08T08:25:26;99960.81;;;9.68;78.23
68859;BME280;55864;49.238;8.092;2023-04-08T08:27:28;99962.19;;;9.83;77.70
68859;BME280;55864;49.238;8.092;2023-04-08T08:29:28;99961.22;;;9.84;77.24
68859;BME280;55864;49.238;8.092;2023-04-08T08:31:29;99963.84;;;9.84;76.37
68859;BME280;55864;49.238;8.092;2023-04-08T08:33:29;99972.34;;;9.88;76.76
68859;BME280;55864;49.238;8.092;2023-04-08T08:35:30;99965.84;;;9.92;77.78
68859;BME280;55864;49.238;8.092;2023-04-08T08:37:30;99968.69;;;10.00;77.77
68859;BME280;55864;49.238;8.092;2023-04-08T08:39:31;99964.72;;;10.05;77.43
68859;BME280;55864;49.238;8.092;2023-04-08T08:41:32;99967.84;;;10.10;76.26
68859;BME280;55864;49.238;8.092;2023-04-08T08:43:34;99964.47;;;10.19;75.92
68859;BME280;55864;49.238;8.092;2023-04-08T08:45:38;99971.34;;;10.20;75.43
68859;BME280;55864;49.238;8.092;2023-04-08T08:47:38;99961.41;;;10.35;75.75
68859;BME280;55864;49.238;8.092;2023-04-08T08:49:39;99962.47;;;10.32;75.21
68859;BME280;55864;49.238;8.092;2023-04-08T08:51:40;99971.25;;;10.43;74.43
68859;BME280;55864;49.238;8.092;2023-04-08T08:53:40;99960.81;;;10.52;74.51
68859;BME280;55864;49.238;8.092;2023-04-08T08:55:41;99960.97;;;10.60;73.93
68859;BME280;55864;49.238;8.092;2023-04-08T08:57:41;99960.06;;;10.71;74.20
68859;BME280;55864;49.238;8.092;2023-04-08T08:59:44;99963.41;;;10.73;73.85
68859;BME280;55864;49.238;8.092;2023-04-08T09:01:45;99960.72;;;10.93;73.57
68859;BME280;55864;49.238;8.092;2023-04-08T09:03:46;99963.53;;;11.01;73.84
68859;BME280;55864;49.238;8.092;2023-04-08T09:05:48;99964.25;;;11.13;74.10
68859;BME280;55864;49.238;8.092;2023-04-08T09:07:48;99971.63;;;11.19;73.45
68859;BME280;55864;49.238;8.092;2023-04-08T09:09:49;99959.63;;;11.26;71.18
68859;BME280;55864;49.238;8.092;2023-04-08T09:12:01;99968.34;;;11.36;71.88
68859;BME280;55864;49.238;8.092;2023-04-08T09:14:03;99959.78;;;11.44;71.97
68859;BME280;55864;49.238;8.092;2023-04-08T09:16:06;99967.00;;;11.51;70.89
68859;BME280;55864;49.238;8.092;2023-04-08T09:18:20;99973.78;;;11.54;69.87
68859;BME280;55864;49.238;8.092;2023-04-08T09:20:21;99964.34;;;11.51;69.82
68859;BME280;55864;49.238;8.092;2023-04-08T09:22:21;99969.94;;;11.58;68.60
68859;BME280;55864;49.238;8.092;2023-04-08T09:24:29;99973.25;;;11.60;68.48
68859;BME280;55864;49.238;8.092;2023-04-08T09:26:29;99975.34;;;11.56;67.75
68859;BME280;55864;49.238;8.092;2023-04-08T09:28:30;99975.38;;;11.66;69.25
68859;BME280;55864;49.238;8.092;2023-04-08T09:30:31;99973.81;;;11.63;68.69
68859;BME280;55864;49.238;8.092;2023-04-08T09:32:48;99977.03;;;11.67;69.93
68859;BME280;55864;49.238;8.092;2023-04-08T09:34:49;99973.41;;;11.68;70.13
68859;BME280;55864;49.238;8.092;2023-04-08T09:36:50;99969.00;;;11.87;69.72
68859;BME280;55864;49.238;8.092;2023-04-08T09:38:51;99971.78;;;11.86;68.36
68859;BME280;55864;49.238;8.092;2023-04-08T09:40:52;99971.25;;;11.92;68.52
68859;BME280;55864;49.238;8.092;2023-04-08T09:42:54;99970.94;;;11.95;68.26
68859;BME280;55864;49.238;8.092;2023-04-08T09:44:56;99977.75;;;11.97;67.73
68859;BME280;55864;49.238;8.092;2023-04-08T09:47:01;99979.16;;;12.11;68.47
68859;BME280;55864;49.238;8.092;2023-04-08T09:49:09;99973.44;;;12.06;66.37
68859;BME280;55864;49.238;8.092;2023-04-08T09:51:14;99976.38;;;12.12;65.94
68859;BME280;55864;49.238;8.092;2023-04-08T09:53:19;99972.59;;;12.15;65.68
68859;BME280;55864;49.238;8.092;2023-04-08T09:55:21;99975.13;;;12.16;64.80
68859;BME280;55864;49.238;8.092;2023-04-08T09:57:30;99971.34;;;12.28;63.38
68859;BME280;55864;49.238;8.092;2023-04-08T09:59:33;99963.72;;;12.35;59.04
68859;BME280;55864;49.238;8.092;2023-04-08T10:01:37;99967.75;;;12.39;61.39
68859;BME280;55864;49.238;8.092;2023-04-08T10:03:39;99968.69;;;12.48;58.38
68859;BME280;55864;49.238;8.092;2023-04-08T10:05:47;99976.59;;;12.48;58.58
68859;BME280;55864;49.238;8.092;2023-04-08T10:07:48;99974.25;;;12.45;59.76
68859;BME280;55864;49.238;8.092;2023-04-08T10:09:50;99984.50;;;12.48;60.38
68859;BME280;55864;49.238;8.092;2023-04-08T10:11:51;99978.13;;;12.41;60.32
68859;BME280;55864;49.238;8.092;2023-04-08T10:13:51;99982.03;;;12.37;59.94
68859;BME280;55864;49.238;8.092;2023-04-08T10:16:18;99988.53;;;12.32;60.32
68859;BME280;55864;49.238;8.092;2023-04-08T10:18:31;99980.94;;;12.29;59.30
68859;BME280;55864;49.238;8.092;2023-04-08T10:20:42;99981.47;;;12.33;59.66
68859;BME280;55864;49.238;8.092;2023-04-08T10:22:47;99978.13;;;12.41;61.17
68859;BME280;55864;49.238;8.092;2023-04-08T10:27:37;99979.09;;;12.40;63.42
68859;BME280;55864;49.238;8.092;2023-04-08T10:29:38;99980.38;;;12.36;64.46
68859;BME280;55864;49.238;8.092;2023-04-08T10:31:39;99990.47;;;12.30;64.74
68859;BME280;55864;49.238;8.092;2023-04-08T10:33:39;99990.47;;;12.30;65.46
68859;BME280;55864;49.238;8.092;2023-04-08T10:35:41;99986.91;;;12.32;64.81
68859;BME280;55864;49.238;8.092;2023-04-08T10:37:42;99980.78;;;12.21;65.05
68859;BME280;55864;49.238;8.092;2023-04-08T10:39:49;99976.91;;;12.16;64.34
68859;BME280;55864;49.238;8.092;2023-04-08T10:41:49;99984.81;;;12.16;64.72
68859;BME280;55864;49.238;8.092;2023-04-08T10:43:50;99983.97;;;12.15;61.45
68859;BME280;55864;49.238;8.092;2023-04-08T10:45:52;99986.22;;;12.10;62.88
68859;BME280;55864;49.238;8.092;2023-04-08T10:47:53;99989.94;;;12.08;62.64
68859;BME280;55864;49.238;8.092;2023-04-08T10:49:53;99982.59;;;12.02;62.88
68859;BME280;55864;49.238;8.092;2023-04-08T10:51:54;99985.91;;;12.04;64.45
68859;BME280;55864;49.238;8.092;2023-04-08T10:53:54;99990.63;;;12.00;64.01